Time;durP1;ratioP1;P1;durP2;ratioP2;P2;SDS_P1;SDS_P2;PMS_P1;PMS_P2;Temp;Humidity;BMP_temperature;BMP_pressure;BME280_temperature;BME280_humidity;BME280_pressure;Samples;Min_cycle;Max_cycle;Signal;HPM_P1;HPM_P2
2022/02/24 00:01:10;;;;;;;4.78;2.00;;;;;;;;;;5015449;28;20077;-70
2022/02/24 00:03:38;;;;;;;4.93;2.00;;;;;;;;;;5015343;28;20042;-71
2022/02/24 00:06:06;;;;;;;3.78;1.90;;;;;;;;;;5014771;28;20049;-70
2022/02/24 00:08:33;;;;;;;5.68;2.00;;;;;;;;;;5015453;28;20060;-70
2022/02/24 00:11:03;;;;;;;2.80;1.80;;;;;;;;;;5014823;28;20045;-70
2022/02/24 00:13:31;;;;;;;4.20;2.15;;;;;;;;;;5015506;28;20041;-70
2022/02/24 00:15:58;;;;;;;8.20;2.03;;;;;;;;;;5015442;28;20571;-70
2022/02/24 00:18:26;;;;;;;4.50;2.05;;;;;;;;;;5014250;28;20497;-70
2022/02/24 00:20:54;;;;;;;2.20;1.60;;;;;;;;;;5015326;28;20375;-70
2022/02/24 00:23:21;;;;;;;5.97;1.65;;;;;;;;;;5014926;28;20049;-71
2022/02/24 00:25:49;;;;;;;4.05;1.90;;;;;;;;;;5015172;28;20042;-71
2022/02/24 00:28:16;;;;;;;5.90;1.77;;;;;;;;;;5014852;28;20057;-71
2022/02/24 00:30:44;;;;;;;8.80;1.83;;;;;;;;;;4997375;28;20052;-72
2022/02/24 00:33:11;;;;;;;5.72;1.95;;;;;;;;;;5014942;28;20113;-72
2022/02/24 00:35:39;;;;;;;7.82;1.70;;;;;;;;;;5014559;28;20077;-71
2022/02/24 00:38:09;;;;;;;3.42;1.80;;;;;;;;;;5014823;28;20052;-72
2022/02/24 00:40:36;;;;;;;7.00;1.90;;;;;;;;;;5014653;28;20120;-72
2022/02/24 00:43:04;;;;;;;4.15;1.65;;;;;;;;;;5014541;28;20409;-69
2022/02/24 00:45:32;;;;;;;3.47;1.45;;;;;;;;;;5014574;28;20034;-69
2022/02/24 00:48:00;;;;;;;5.05;1.77;;;;;;;;;;5014407;28;20060;-68
2022/02/24 00:50:27;;;;;;;4.95;1.45;;;;;;;;;;5014424;28;20038;-69
2022/02/24 00:52:56;;;;;;;7.00;1.65;;;;;;;;;;5014925;28;20041;-68
2022/02/24 00:55:25;;;;;;;4.95;1.52;;;;;;;;;;5015045;28;20386;-68
2022/02/24 00:57:53;;;;;;;3.30;1.13;;;;;;;;;;5014038;28;20493;-70
2022/02/24 01:00:21;;;;;;;2.35;1.27;;;;;;;;;;5014460;28;20046;-70
2022/02/24 01:02:48;;;;;;;3.13;1.77;;;;;;;;;;5014377;28;20045;-72
2022/02/24 01:05:16;;;;;;;8.93;1.70;;;;;;;;;;5014455;28;20045;-71
2022/02/24 01:07:44;;;;;;;4.70;1.55;;;;;;;;;;5014663;28;20038;-71
2022/02/24 01:10:12;;;;;;;3.83;1.55;;;;;;;;;;4996725;28;20381;-71
2022/02/24 01:12:39;;;;;;;4.38;1.77;;;;;;;;;;5014533;28;20038;-71
2022/02/24 01:15:08;;;;;;;5.25;1.45;;;;;;;;;;5015028;28;20045;-71
2022/02/24 01:17:43;;;;;;;3.97;1.52;;;;;;;;;;5014228;28;20104;-71
2022/02/24 01:20:10;;;;;;;2.77;1.20;;;;;;;;;;5014227;28;20030;-71
2022/02/24 01:22:38;;;;;;;2.33;1.20;;;;;;;;;;4996154;28;20474;-71
2022/02/24 01:25:14;;;;;;;2.60;1.23;;;;;;;;;;5013891;28;20077;-70
2022/02/24 01:27:44;;;;;;;2.78;1.20;;;;;;;;;;5013957;28;20038;-71
2022/02/24 01:30:11;;;;;;;5.13;1.88;;;;;;;;;;5013115;28;20481;-71
2022/02/24 01:32:39;;;;;;;1.88;1.17;;;;;;;;;;5013661;28;20044;-71
2022/02/24 01:35:07;;;;;;;4.45;1.42;;;;;;;;;;5013972;28;20438;-71
2022/02/24 01:37:36;;;;;;;3.35;1.15;;;;;;;;;;5013437;28;20042;-72
2022/02/24 01:40:05;;;;;;;5.10;1.50;;;;;;;;;;4996268;28;20088;-70
2022/02/24 01:42:32;;;;;;;8.18;1.23;;;;;;;;;;5013466;28;20048;-71
2022/02/24 01:45:00;;;;;;;6.57;1.23;;;;;;;;;;5013527;28;20518;-71
2022/02/24 01:47:28;;;;;;;2.35;1.20;;;;;;;;;;5013264;28;20104;-71
2022/02/24 01:49:56;;;;;;;1.80;1.38;;;;;;;;;;5013748;28;20053;-71
2022/02/24 01:52:25;;;;;;;3.13;1.17;;;;;;;;;;5013403;28;20045;-69
2022/02/24 01:54:54;;;;;;;2.10;0.85;;;;;;;;;;5013803;28;20072;-68
2022/02/24 01:57:22;;;;;;;3.33;1.23;;;;;;;;;;5013266;28;20412;-69
2022/02/24 01:59:50;;;;;;;6.18;1.65;;;;;;;;;;5014672;28;20045;-68
2022/02/24 02:02:18;;;;;;;2.38;1.00;;;;;;;;;;5011961;28;20041;-68
2022/02/24 02:04:46;;;;;;;6.00;1.00;;;;;;;;;;4994799;28;20430;-69
2022/02/24 02:07:14;;;;;;;3.55;1.13;;;;;;;;;;5011812;28;20056;-72
2022/02/24 02:09:41;;;;;;;1.40;0.90;;;;;;;;;;5012524;28;20038;-70
2022/02/24 02:12:10;;;;;;;3.10;0.90;;;;;;;;;;5013313;28;20045;-70
2022/02/24 02:14:38;;;;;;;2.78;1.40;;;;;;;;;;5015155;28;20489;-71
2022/02/24 02:17:06;;;;;;;4.65;1.17;;;;;;;;;;4995802;28;20137;-72
2022/02/24 02:19:36;;;;;;;2.63;0.98;;;;;;;;;;5013205;28;20460;-70
2022/02/24 02:22:04;;;;;;;2.40;0.93;;;;;;;;;;5028045;28;20133;-71
2022/02/24 02:24:36;;;;;;;2.30;1.00;;;;;;;;;;5012490;28;20060;-72
2022/02/24 02:27:04;;;;;;;8.90;1.15;;;;;;;;;;5013038;28;20053;-71
2022/02/24 02:29:31;;;;;;;3.00;1.13;;;;;;;;;;4995755;28;20381;-71
2022/02/24 02:31:59;;;;;;;2.83;1.10;;;;;;;;;;5013150;28;20121;-71
2022/02/24 02:34:26;;;;;;;2.50;0.90;;;;;;;;;;5012655;28;20045;-71
2022/02/24 02:36:54;;;;;;;2.05;1.05;;;;;;;;;;5012523;28;20060;-72
2022/02/24 02:39:22;;;;;;;2.03;1.10;;;;;;;;;;5012814;28;20089;-72
2022/02/24 02:41:49;;;;;;;3.28;1.13;;;;;;;;;;5013712;28;20497;-72
2022/02/24 02:44:17;;;;;;;3.80;1.20;;;;;;;;;;5016689;28;20519;-71
2022/02/24 02:46:45;;;;;;;2.28;1.20;;;;;;;;;;5016720;28;20064;-71
2022/02/24 02:49:12;;;;;;;1.90;1.13;;;;;;;;;;5017113;28;20076;-70
2022/02/24 02:51:40;;;;;;;4.30;1.20;;;;;;;;;;5016840;28;20034;-71
2022/02/24 02:54:08;;;;;;;2.58;1.00;;;;;;;;;;5017035;28;20050;-72
2022/02/24 02:56:37;;;;;;;2.83;1.10;;;;;;;;;;5016411;28;20401;-71
2022/02/24 02:59:04;;;;;;;4.18;1.60;;;;;;;;;;5016803;28;20042;-72
2022/02/24 03:01:32;;;;;;;3.67;1.73;;;;;;;;;;5016621;28;20046;-72
2022/02/24 03:03:59;;;;;;;2.53;1.20;;;;;;;;;;5016282;28;20050;-70
2022/02/24 03:06:27;;;;;;;2.75;1.40;;;;;;;;;;5016779;28;20068;-71
2022/02/24 03:08:54;;;;;;;3.50;1.17;;;;;;;;;;5016598;28;20136;-70
2022/02/24 03:11:22;;;;;;;2.60;1.10;;;;;;;;;;5016002;28;20034;-71
2022/02/24 03:13:51;;;;;;;5.85;1.35;;;;;;;;;;5016700;28;20041;-72
2022/02/24 03:16:19;;;;;;;4.43;1.17;;;;;;;;;;5016506;28;20092;-71
2022/02/24 03:18:46;;;;;;;2.47;1.10;;;;;;;;;;5016200;28;20581;-71
2022/02/24 03:21:14;;;;;;;1.48;0.95;;;;;;;;;;5016082;28;20120;-70
2022/02/24 03:23:42;;;;;;;1.98;1.00;;;;;;;;;;5015883;28;20053;-71
2022/02/24 03:26:09;;;;;;;3.63;1.20;;;;;;;;;;5015736;28;20375;-72
2022/02/24 03:28:37;;;;;;;1.55;0.93;;;;;;;;;;4998875;28;20140;-71
2022/02/24 03:31:05;;;;;;;1.50;1.00;;;;;;;;;;5016156;28;20042;-72
2022/02/24 03:33:33;;;;;;;4.53;1.35;;;;;;;;;;5015895;28;20141;-72
2022/02/24 03:36:00;;;;;;;4.13;1.05;;;;;;;;;;5015720;28;20046;-71
2022/02/24 03:38:28;;;;;;;1.10;0.80;;;;;;;;;;5015854;28;20057;-71
2022/02/24 03:40:57;;;;;;;1.38;1.20;;;;;;;;;;5015623;28;20052;-71
2022/02/24 03:43:29;;;;;;;3.85;1.35;;;;;;;;;;5015927;28;20198;-71
2022/02/24 03:45:58;;;;;;;3.20;1.00;;;;;;;;;;5015595;28;20056;-71
2022/02/24 03:48:25;;;;;;;1.10;0.90;;;;;;;;;;5015316;28;20041;-72
2022/02/24 03:50:52;;;;;;;2.88;1.00;;;;;;;;;;5016069;28;20068;-71
2022/02/24 03:53:20;;;;;;;1.63;1.10;;;;;;;;;;4997417;28;20056;-72
2022/02/24 03:55:50;;;;;;;1.02;0.70;;;;;;;;;;5015746;28;20049;-71
2022/02/24 03:58:17;;;;;;;5.72;0.90;;;;;;;;;;5015479;28;20042;-71
2022/02/24 04:00:45;;;;;;;1.92;1.00;;;;;;;;;;5014952;28;20382;-71
2022/02/24 04:03:18;;;;;;;0.98;0.80;;;;;;;;;;4998799;28;20109;-72
2022/02/24 04:05:48;;;;;;;2.15;0.73;;;;;;;;;;5015230;28;20048;-70
2022/02/24 04:08:16;;;;;;;1.90;0.90;;;;;;;;;;5015710;28;20069;-72
2022/02/24 04:10:43;;;;;;;3.53;1.05;;;;;;;;;;5015096;28;20056;-71
2022/02/24 04:13:11;;;;;;;2.50;1.17;;;;;;;;;;5015391;28;20045;-70
2022/02/24 04:15:39;;;;;;;1.88;1.00;;;;;;;;;;5014929;28;20045;-71
2022/02/24 04:18:07;;;;;;;5.93;1.30;;;;;;;;;;4998013;28;20034;-72
2022/02/24 04:20:34;;;;;;;3.25;1.13;;;;;;;;;;5015015;28;20042;-71
2022/02/24 04:23:02;;;;;;;2.25;1.58;;;;;;;;;;5014866;28;20432;-71
2022/02/24 04:25:30;;;;;;;5.85;1.50;;;;;;;;;;5014983;28;20056;-72
2022/02/24 04:27:57;;;;;;;3.42;1.70;;;;;;;;;;5015197;28;20053;-71
2022/02/24 04:30:25;;;;;;;2.30;1.48;;;;;;;;;;5014444;28;20045;-72
2022/02/24 04:32:53;;;;;;;2.03;1.50;;;;;;;;;;5014675;28;20096;-70
2022/02/24 04:35:20;;;;;;;3.78;1.50;;;;;;;;;;5014484;28;20042;-70
2022/02/24 04:37:48;;;;;;;4.68;1.77;;;;;;;;;;5014750;28;20046;-70
2022/02/24 04:40:16;;;;;;;4.68;1.75;;;;;;;;;;5014654;28;20129;-71
2022/02/24 04:42:44;;;;;;;3.75;1.50;;;;;;;;;;5014962;28;20096;-72
2022/02/24 04:45:13;;;;;;;2.72;1.27;;;;;;;;;;4997122;28;20503;-71
2022/02/24 04:47:44;;;;;;;5.13;1.70;;;;;;;;;;5014518;28;20100;-70
2022/02/24 04:50:11;;;;;;;5.72;1.60;;;;;;;;;;5014913;28;20124;-71
2022/02/24 04:52:39;;;;;;;5.22;1.58;;;;;;;;;;5014610;28;20100;-71
2022/02/24 04:55:07;;;;;;;7.50;1.52;;;;;;;;;;4997202;28;20497;-72
2022/02/24 04:57:34;;;;;;;4.68;1.65;;;;;;;;;;5014187;28;20117;-72
2022/02/24 05:00:04;;;;;;;3.10;1.38;;;;;;;;;;4996945;28;20116;-70
2022/02/24 05:02:33;;;;;;;5.03;1.27;;;;;;;;;;5014128;28;20108;-71
2022/02/24 05:05:01;;;;;;;4.18;1.33;;;;;;;;;;5013854;28;20054;-71
2022/02/24 05:07:29;;;;;;;2.67;1.45;;;;;;;;;;5014384;28;20042;-71
2022/02/24 05:09:58;;;;;;;5.78;1.40;;;;;;;;;;5014118;28;20049;-71
2022/02/24 05:12:26;;;;;;;2.97;1.10;;;;;;;;;;5013987;28;20092;-70
2022/02/24 05:14:53;;;;;;;2.25;1.20;;;;;;;;;;5014428;28;20041;-70
2022/02/24 05:17:23;;;;;;;2.65;1.13;;;;;;;;;;5013859;28;20053;-70
2022/02/24 05:19:50;;;;;;;4.38;1.45;;;;;;;;;;5013631;28;20090;-70
2022/02/24 05:22:18;;;;;;;3.53;1.20;;;;;;;;;;5014014;28;20073;-71
2022/02/24 05:24:46;;;;;;;2.63;1.40;;;;;;;;;;4995794;28;20061;-71
2022/02/24 05:27:13;;;;;;;2.88;1.30;;;;;;;;;;5013548;28;20041;-70
2022/02/24 05:29:41;;;;;;;1.80;1.20;;;;;;;;;;5013715;28;20038;-71
2022/02/24 05:32:09;;;;;;;6.22;1.48;;;;;;;;;;5013521;28;20084;-70
2022/02/24 05:34:36;;;;;;;3.60;1.60;;;;;;;;;;5013723;28;20037;-70
2022/02/24 05:37:04;;;;;;;5.97;1.85;;;;;;;;;;5013452;28;20050;-70
2022/02/24 05:39:32;;;;;;;10.32;1.77;;;;;;;;;;5013606;28;20073;-71
2022/02/24 05:41:59;;;;;;;7.60;1.92;;;;;;;;;;5013562;28;20474;-71
2022/02/24 05:44:27;;;;;;;4.30;1.75;;;;;;;;;;5013794;28;20111;-72
2022/02/24 05:46:55;;;;;;;5.97;1.65;;;;;;;;;;5013356;28;20042;-71
2022/02/24 05:49:24;;;;;;;5.43;2.38;;;;;;;;;;5013594;28;20038;-71
2022/02/24 05:51:51;;;;;;;7.63;2.47;;;;;;;;;;5013483;28;20100;-71
2022/02/24 05:54:19;;;;;;;5.60;2.13;;;;;;;;;;5013388;28;20409;-72
2022/02/24 05:56:50;;;;;;;7.20;2.40;;;;;;;;;;5013235;28;20477;-69
2022/02/24 05:59:17;;;;;;;7.03;2.40;;;;;;;;;;5013042;28;20137;-69
2022/02/24 06:01:47;;;;;;;5.22;2.30;;;;;;;;;;5013534;28;20532;-69
2022/02/24 06:04:18;;;;;;;6.63;2.13;;;;;;;;;;5013468;28;20624;-69
2022/02/24 06:06:52;;;;;;;13.17;2.70;;;;;;;;;;5013018;28;20123;-69
2022/02/24 06:09:21;;;;;;;5.45;2.08;;;;;;;;;;5028179;28;20293;-72
2022/02/24 06:11:50;;;;;;;8.40;2.40;;;;;;;;;;5012804;28;20088;-69
2022/02/24 06:14:18;;;;;;;10.23;3.00;;;;;;;;;;5013136;28;20045;-69
2022/02/24 06:16:45;;;;;;;4.22;2.42;;;;;;;;;;5012574;28;20467;-72
2022/02/24 06:19:18;;;;;;;4.40;2.55;;;;;;;;;;5013276;28;20502;-69
2022/02/24 06:21:48;;;;;;;7.30;2.90;;;;;;;;;;5013060;28;20046;-71
2022/02/24 06:24:15;;;;;;;5.82;2.85;;;;;;;;;;5012700;28;20124;-69
2022/02/24 06:26:43;;;;;;;7.45;2.80;;;;;;;;;;5018214;28;20044;-71
2022/02/24 06:29:11;;;;;;;4.68;2.50;;;;;;;;;;5015905;28;20044;-70
2022/02/24 06:31:45;;;;;;;6.20;3.00;;;;;;;;;;5013087;28;20073;-70
2022/02/24 06:34:15;;;;;;;9.60;3.80;;;;;;;;;;5012432;28;20046;-69
2022/02/24 06:36:44;;;;;;;4.70;2.70;;;;;;;;;;5012216;28;20401;-71
2022/02/24 06:39:11;;;;;;;9.73;2.72;;;;;;;;;;5012648;28;20046;-71
2022/02/24 06:41:39;;;;;;;8.45;4.13;;;;;;;;;;5012845;28;20038;-71
2022/02/24 06:44:08;;;;;;;10.10;4.05;;;;;;;;;;4995642;28;20137;-70
2022/02/24 06:46:36;;;;;;;10.05;3.47;;;;;;;;;;4976370;28;20042;-70
2022/02/24 06:49:04;;;;;;;5.50;3.33;;;;;;;;;;4993426;28;20043;-72
2022/02/24 06:51:34;;;;;;;4.38;2.97;;;;;;;;;;4983166;28;20148;-69
2022/02/24 06:54:04;;;;;;;9.30;5.20;;;;;;;;;;5012887;28;20100;-70
2022/02/24 06:56:32;;;;;;;6.28;4.07;;;;;;;;;;5012556;28;20415;-70
2022/02/24 06:59:02;;;;;;;8.85;2.75;;;;;;;;;;5012081;28;20042;-70
2022/02/24 07:01:30;;;;;;;5.68;2.42;;;;;;;;;;4996217;28;20045;-68
2022/02/24 07:03:58;;;;;;;7.18;3.85;;;;;;;;;;5014603;28;20037;-70
2022/02/24 07:06:26;;;;;;;7.68;3.50;;;;;;;;;;5017216;28;20109;-69
2022/02/24 07:08:56;;;;;;;9.35;3.00;;;;;;;;;;5012426;28;20351;-70
2022/02/24 07:11:23;;;;;;;5.40;2.42;;;;;;;;;;5011519;28;20502;-68
2022/02/24 07:13:53;;;;;;;11.13;3.60;;;;;;;;;;5011442;28;20042;-71
2022/02/24 07:16:32;;;;;;;11.18;4.05;;;;;;;;;;5016185;28;20040;-69
2022/02/24 07:19:01;;;;;;;6.18;3.05;;;;;;;;;;5015629;28;20137;-70
2022/02/24 07:21:29;;;;;;;6.20;2.50;;;;;;;;;;5017670;28;20057;-71
2022/02/24 07:24:01;;;;;;;5.93;3.03;;;;;;;;;;5108031;22;20056;-69
2022/02/24 07:26:28;;;;;;;9.20;4.38;;;;;;;;;;5009557;28;20038;-69
2022/02/24 07:28:56;;;;;;;16.90;6.03;;;;;;;;;;5011592;28;20037;-69
2022/02/24 07:31:24;;;;;;;16.55;4.90;;;;;;;;;;5012103;28;20455;-71
2022/02/24 07:33:51;;;;;;;12.63;4.78;;;;;;;;;;5014639;28;20134;-69
2022/02/24 07:36:23;;;;;;;11.85;4.65;;;;;;;;;;5014941;28;20099;-70
2022/02/24 07:38:50;;;;;;;11.57;4.30;;;;;;;;;;5015258;28;20041;-69
2022/02/24 07:41:20;;;;;;;8.43;3.40;;;;;;;;;;5013483;28;20057;-72
2022/02/24 07:43:47;;;;;;;9.45;4.20;;;;;;;;;;5014558;28;20052;-72
2022/02/24 07:46:15;;;;;;;9.27;4.07;;;;;;;;;;5013611;28;20045;-72
2022/02/24 07:48:42;;;;;;;9.70;3.50;;;;;;;;;;5014352;28;20335;-71
2022/02/24 07:51:10;;;;;;;8.98;3.20;;;;;;;;;;5014523;28;20511;-71
2022/02/24 07:53:37;;;;;;;4.97;2.40;;;;;;;;;;5014471;28;20053;-70
2022/02/24 07:56:05;;;;;;;4.85;2.72;;;;;;;;;;5013164;28;20050;-70
2022/02/24 07:58:33;;;;;;;6.90;3.00;;;;;;;;;;5020148;28;20038;-72
2022/02/24 08:01:01;;;;;;;6.60;2.80;;;;;;;;;;5014033;28;20041;-72
2022/02/24 08:03:29;;;;;;;4.15;2.33;;;;;;;;;;5014366;28;20037;-71
2022/02/24 08:05:58;;;;;;;7.70;2.83;;;;;;;;;;5014858;28;20058;-70
2022/02/24 08:08:25;;;;;;;4.93;2.08;;;;;;;;;;5023232;28;20091;-70
2022/02/24 08:11:01;;;;;;;5.43;2.60;;;;;;;;;;5021842;28;20033;-70
2022/02/24 08:13:29;;;;;;;11.52;2.75;;;;;;;;;;5014050;28;20489;-70
2022/02/24 08:16:01;;;;;;;10.20;2.38;;;;;;;;;;5014240;28;20052;-70
2022/02/24 08:18:29;;;;;;;9.85;2.20;;;;;;;;;;5014132;28;20052;-70
2022/02/24 08:20:57;;;;;;;5.63;2.58;;;;;;;;;;5014293;28;20046;-72
2022/02/24 08:23:24;;;;;;;8.07;3.03;;;;;;;;;;5033452;28;20045;-71
2022/02/24 08:25:53;;;;;;;5.07;2.33;;;;;;;;;;5027469;28;20057;-72
2022/02/24 08:28:20;;;;;;;5.80;2.85;;;;;;;;;;5012416;28;20065;-69
2022/02/24 08:30:48;;;;;;;7.53;2.63;;;;;;;;;;5014564;28;20053;-68
2022/02/24 08:33:18;;;;;;;4.78;2.72;;;;;;;;;;5014417;28;20038;-69
2022/02/24 08:35:46;;;;;;;4.75;2.28;;;;;;;;;;5013265;28;20536;-71
2022/02/24 08:38:13;;;;;;;3.97;1.85;;;;;;;;;;5014132;28;20472;-71
2022/02/24 08:40:41;;;;;;;3.17;1.67;;;;;;;;;;5012785;28;20045;-71
2022/02/24 08:43:08;;;;;;;1.95;1.50;;;;;;;;;;5019236;28;20049;-72
2022/02/24 08:45:36;;;;;;;5.30;2.38;;;;;;;;;;5034820;28;20071;-71
2022/02/24 08:48:06;;;;;;;2.90;1.80;;;;;;;;;;5033078;28;20046;-70
2022/02/24 08:50:33;;;;;;;4.95;2.22;;;;;;;;;;5034450;28;20063;-71
2022/02/24 08:53:06;;;;;;;;;;;;;;;;;;5035372;28;20492;-69
2022/02/24 08:55:37;;;;;;;2.50;1.00;;;;;;;;;;5034321;28;20012;-71
2022/02/24 08:58:05;;;;;;;4.00;1.65;;;;;;;;;;5034351;28;20060;-71
2022/02/24 09:00:34;;;;;;;2.25;1.40;;;;;;;;;;5034613;28;20512;-69
2022/02/24 09:03:02;;;;;;;3.20;1.63;;;;;;;;;;5030039;28;20065;-71
2022/02/24 09:05:33;;;;;;;2.72;1.50;;;;;;;;;;5024697;28;20042;-72
2022/02/24 09:08:00;;;;;;;4.50;2.40;;;;;;;;;;5027301;28;20041;-69
2022/02/24 09:10:31;;;;;;;4.72;2.15;;;;;;;;;;5033854;28;20453;-68
2022/02/24 09:12:59;;;;;;;9.60;2.10;;;;;;;;;;5033662;28;20149;-69
2022/02/24 09:15:31;;;;;;;5.28;2.03;;;;;;;;;;5033990;28;20043;-69
2022/02/24 09:18:06;;;;;;;6.75;1.98;;;;;;;;;;5028279;28;20045;-71
2022/02/24 09:20:37;;;;;;;2.83;1.75;;;;;;;;;;5034118;28;20045;-69
2022/02/24 09:23:07;;;;;;;2.60;1.92;;;;;;;;;;5027852;28;20097;-71
2022/02/24 09:25:38;;;;;;;6.00;1.92;;;;;;;;;;5017296;28;20058;-69
2022/02/24 09:28:05;;;;;;;2.95;1.98;;;;;;;;;;5030622;28;20487;-69
2022/02/24 09:30:34;;;;;;;4.65;2.30;;;;;;;;;;5033166;28;20045;-70
2022/02/24 09:33:05;;;;;;;3.72;1.77;;;;;;;;;;5033547;28;20045;-71
2022/02/24 09:35:33;;;;;;;4.20;1.90;;;;;;;;;;5033492;28;20048;-68
2022/02/24 09:38:00;;;;;;;4.65;1.83;;;;;;;;;;5033571;28;20045;-69
2022/02/24 09:40:30;;;;;;;3.13;1.40;;;;;;;;;;5032664;28;20072;-68
2022/02/24 09:43:20;;;;;;;1.98;1.48;;;;;;;;;;5033542;28;20129;-70
2022/02/24 09:45:50;;;;;;;4.43;1.60;;;;;;;;;;5033306;28;20555;-68
2022/02/24 09:48:19;;;;;;;4.85;1.55;;;;;;;;;;5022212;28;20536;-68
2022/02/24 09:50:51;;;;;;;5.53;1.92;;;;;;;;;;5019480;28;20046;-73
2022/02/24 09:53:19;;;;;;;5.30;1.80;;;;;;;;;;5013270;28;20264;-70
2022/02/24 09:55:47;;;;;;;4.93;1.73;;;;;;;;;;5013696;28;20048;-70
2022/02/24 09:58:16;;;;;;;2.67;1.30;;;;;;;;;;5013952;28;20092;-68
2022/02/24 10:00:47;;;;;;;1.83;1.35;;;;;;;;;;5013079;28;20053;-70
2022/02/24 10:03:25;;;;;;;3.08;1.75;;;;;;;;;;5013627;28;20066;-68
2022/02/24 10:05:54;;;;;;;4.35;1.70;;;;;;;;;;5017549;28;20045;-70
2022/02/24 10:08:29;;;;;;;2.45;1.40;;;;;;;;;;5021252;28;20489;-68
2022/02/24 10:10:58;;;;;;;4.00;1.10;;;;;;;;;;5030740;28;20069;-69
2022/02/24 10:13:27;;;;;;;3.97;1.30;;;;;;;;;;5023562;28;20377;-70
2022/02/24 10:15:58;;;;;;;6.28;1.60;;;;;;;;;;5013234;28;20454;-68
2022/02/24 10:18:27;;;;;;;2.10;1.33;;;;;;;;;;5018253;28;20049;-70
2022/02/24 10:20:57;;;;;;;6.03;1.85;;;;;;;;;;5016000;28;20069;-69
2022/02/24 10:23:40;;;;;;;4.85;1.75;;;;;;;;;;5012968;28;20049;-68
2022/02/24 10:26:07;;;;;;;;;;;;;;;;;;5027070;28;20056;-68
2022/02/24 10:28:54;;;;;;;2.60;1.38;;;;;;;;;;5027004;28;19927;-70
2022/02/24 10:31:28;;;;;;;4.75;1.45;;;;;;;;;;5026525;28;20068;-70
2022/02/24 10:34:11;;;;;;;5.10;2.17;;;;;;;;;;5031137;28;20041;-70
2022/02/24 10:36:41;;;;;;;2.22;1.45;;;;;;;;;;5027302;28;20115;-71
2022/02/24 10:39:10;;;;;;;3.58;1.33;;;;;;;;;;5012415;28;20049;-70
2022/02/24 10:41:43;;;;;;;2.47;1.30;;;;;;;;;;5013242;28;20493;-69
2022/02/24 10:44:14;;;;;;;2.70;1.75;;;;;;;;;;5015646;28;20053;-68
2022/02/24 10:46:43;;;;;;;3.25;1.20;;;;;;;;;;5020065;28;20053;-68
2022/02/24 10:49:15;;;;;;;2.30;1.20;;;;;;;;;;5013085;28;20046;-69
2022/02/24 10:51:43;;;;;;;7.30;2.13;;;;;;;;;;5019876;28;20038;-73
2022/02/24 10:54:14;;;;;;;3.35;1.00;;;;;;;;;;5024289;28;20065;-72
2022/02/24 10:56:43;;;;;;;7.90;1.40;;;;;;;;;;5011817;28;20037;-73
2022/02/24 10:59:16;;;;;;;2.05;1.08;;;;;;;;;;5012788;28;20446;-72
2022/02/24 11:01:44;;;;;;;6.68;1.45;;;;;;;;;;5012457;28;20124;-72
2022/02/24 11:04:13;;;;;;;2.50;1.25;;;;;;;;;;5014539;28;20244;-73
2022/02/24 11:06:41;;;;;;;3.03;1.52;;;;;;;;;;5016645;28;20041;-70
2022/02/24 11:09:09;;;;;;;2.38;1.23;;;;;;;;;;5016187;28;20054;-71
2022/02/24 11:11:37;;;;;;;6.10;1.98;;;;;;;;;;5016469;28;20409;-71
2022/02/24 11:14:09;;;;;;;4.00;1.45;;;;;;;;;;5016657;28;20092;-71
2022/02/24 11:16:36;;;;;;;5.30;1.60;;;;;;;;;;5016119;28;20096;-72
2022/02/24 11:19:04;;;;;;;2.40;1.08;;;;;;;;;;5016496;28;20046;-72
2022/02/24 11:21:33;;;;;;;2.47;1.30;;;;;;;;;;5015507;28;20046;-72
2022/02/24 11:24:01;;;;;;;5.90;1.10;;;;;;;;;;5015776;28;20058;-70
2022/02/24 11:26:34;;;;;;;3.80;1.45;;;;;;;;;;5016054;28;20056;-72
2022/02/24 11:29:16;;;;;;;4.22;1.27;;;;;;;;;;5015834;28;20124;-70
2022/02/24 11:31:51;;;;;;;3.50;1.45;;;;;;;;;;5010075;28;20508;-70
2022/02/24 11:34:41;;;;;;;3.33;1.30;;;;;;;;;;5016188;28;20045;-70
2022/02/24 11:37:22;;;;;;;3.20;1.33;;;;;;;;;;5012195;28;20042;-72
2022/02/24 11:39:57;;;;;;;3.72;1.50;;;;;;;;;;5016294;28;20054;-73
2022/02/24 11:42:25;;;;;;;2.45;1.13;;;;;;;;;;5016394;28;20049;-72
2022/02/24 11:44:53;;;;;;;4.88;1.40;;;;;;;;;;5016311;28;20045;-72
2022/02/24 11:47:22;;;;;;;4.40;1.27;;;;;;;;;;5016408;28;20052;-70
2022/02/24 11:49:54;;;;;;;3.13;1.30;;;;;;;;;;5015691;28;20046;-70
2022/02/24 11:52:22;;;;;;;3.88;1.50;;;;;;;;;;5015951;28;20133;-73
2022/02/24 11:54:53;;;;;;;1.80;1.13;;;;;;;;;;5015869;28;20042;-74
2022/02/24 11:57:31;;;;;;;3.35;1.20;;;;;;;;;;5015778;28;20140;-70
2022/02/24 12:00:17;;;;;;;6.07;1.55;;;;;;;;;;5015391;28;20161;-72
2022/02/24 12:02:48;;;;;;;6.68;1.48;;;;;;;;;;5015661;28;20096;-72
2022/02/24 12:05:20;;;;;;;4.85;1.38;;;;;;;;;;5016107;28;20417;-71
2022/02/24 12:08:09;;;;;;;3.20;1.50;;;;;;;;;;5015781;28;20109;-72
2022/02/24 12:10:43;;;;;;;5.50;1.40;;;;;;;;;;5015581;28;20042;-70
2022/02/24 12:13:27;;;;;;;4.10;1.52;;;;;;;;;;5015098;28;20042;-70
2022/02/24 12:16:09;;;;;;;6.47;1.38;;;;;;;;;;5014277;28;20092;-72
2022/02/24 12:18:37;;;;;;;3.38;1.27;;;;;;;;;;5015167;28;20132;-70
2022/02/24 12:21:24;;;;;;;2.65;1.33;;;;;;;;;;5015500;28;20052;-72
2022/02/24 12:23:55;;;;;;;3.60;1.42;;;;;;;;;;5014965;28;20445;-72
2022/02/24 12:26:43;;;;;;;2.47;1.10;;;;;;;;;;5015338;28;20092;-72
2022/02/24 12:29:37;;;;;;;3.53;1.27;;;;;;;;;;5015405;28;20466;-72
2022/02/24 12:32:06;;;;;;;5.40;1.33;;;;;;;;;;5015068;28;20052;-72
2022/02/24 12:34:34;;;;;;;6.82;1.40;;;;;;;;;;5015388;28;20374;-72
2022/02/24 12:37:04;;;;;;;5.40;1.70;;;;;;;;;;5015005;28;20120;-71
2022/02/24 12:39:36;;;;;;;6.45;1.50;;;;;;;;;;5020070;28;20045;-73
2022/02/24 12:42:11;;;;;;;5.20;1.50;;;;;;;;;;5017885;28;20045;-70
2022/02/24 12:44:40;;;;;;;3.75;1.70;;;;;;;;;;5023086;28;20057;-72
2022/02/24 12:47:08;;;;;;;4.07;1.98;;;;;;;;;;5017872;28;20038;-70
2022/02/24 12:49:51;;;;;;;1.58;1.25;;;;;;;;;;5023815;28;20038;-70
2022/02/24 12:52:19;;;;;;;6.07;1.90;;;;;;;;;;5023105;28;20034;-72
2022/02/24 12:54:52;;;;;;;3.03;1.45;;;;;;;;;;5021446;28;20132;-71
2022/02/24 12:57:20;;;;;;;6.43;1.50;;;;;;;;;;5023598;28;20144;-71
2022/02/24 12:59:49;;;;;;;3.05;1.55;;;;;;;;;;5020510;28;20069;-74
2022/02/24 13:02:17;;;;;;;2.92;1.17;;;;;;;;;;5023915;28;20088;-71
2022/02/24 13:04:46;;;;;;;4.50;1.42;;;;;;;;;;5025099;28;20112;-71
2022/02/24 13:09:42;;;;;;;14.18;2.17;;;;;;;;;;5024157;28;20118;-70
2022/02/24 13:10:04;;;;;;;7.60;1.55;;;;;;;;;;5023346;28;20050;-73
2022/02/24 13:12:39;;;;;;;2.97;1.40;;;;;;;;;;5022936;28;20041;-70
2022/02/24 13:15:09;;;;;;;4.35;1.13;;;;;;;;;;5022581;28;20072;-71
2022/02/24 13:17:37;;;;;;;3.33;1.58;;;;;;;;;;5021666;28;20041;-72
2022/02/24 13:20:05;;;;;;;5.35;1.23;;;;;;;;;;5023437;28;20041;-71
2022/02/24 13:22:33;;;;;;;3.00;1.05;;;;;;;;;;5007630;28;20461;-71
2022/02/24 13:25:00;;;;;;;1.95;1.20;;;;;;;;;;5004761;28;20062;-72
2022/02/24 13:27:27;;;;;;;3.50;1.27;;;;;;;;;;4999905;28;20054;-73
2022/02/24 13:29:57;;;;;;;4.15;1.20;;;;;;;;;;5004446;28;20088;-72
2022/02/24 13:32:25;;;;;;;2.88;1.20;;;;;;;;;;5005061;28;20042;-73
2022/02/24 13:34:54;;;;;;;2.97;1.20;;;;;;;;;;5005548;28;20125;-71
2022/02/24 13:37:33;;;;;;;3.90;1.25;;;;;;;;;;5004167;28;20045;-71
2022/02/24 13:40:08;;;;;;;2.05;0.90;;;;;;;;;;5005827;28;20057;-71
2022/02/24 13:42:38;;;;;;;5.50;1.25;;;;;;;;;;4999324;28;20039;-71
2022/02/24 13:45:17;;;;;;;4.30;1.13;;;;;;;;;;4995735;28;20454;-72
2022/02/24 13:47:57;;;;;;;1.95;1.13;;;;;;;;;;4997129;28;20066;-72
2022/02/24 13:50:39;;;;;;;2.50;1.15;;;;;;;;;;4997450;28;20045;-71
2022/02/24 13:53:07;;;;;;;3.80;1.27;;;;;;;;;;4997438;28;20038;-72
2022/02/24 13:55:34;;;;;;;2.42;1.05;;;;;;;;;;4998521;28;20097;-71
2022/02/24 13:58:05;;;;;;;2.25;1.05;;;;;;;;;;5021133;28;20409;-70
2022/02/24 14:00:38;;;;;;;6.50;1.20;;;;;;;;;;5012374;28;20153;-70
2022/02/24 14:03:11;;;;;;;3.40;1.17;;;;;;;;;;4999499;28;20049;-72
2022/02/24 14:05:44;;;;;;;3.78;1.38;;;;;;;;;;4993573;28;20482;-71
2022/02/24 14:08:12;;;;;;;3.13;1.15;;;;;;;;;;4996272;28;20045;-71
2022/02/24 14:10:40;;;;;;;4.28;1.40;;;;;;;;;;4995070;28;20053;-71
2022/02/24 14:13:10;;;;;;;3.22;1.40;;;;;;;;;;4993196;28;20050;-71
2022/02/24 14:15:37;;;;;;;2.90;1.40;;;;;;;;;;4999096;28;20050;-70
2022/02/24 14:18:06;;;;;;;5.10;1.38;;;;;;;;;;4993657;28;20444;-70
2022/02/24 14:20:35;;;;;;;2.58;1.10;;;;;;;;;;4995291;28;20050;-70
2022/02/24 14:23:05;;;;;;;4.13;1.02;;;;;;;;;;4995118;28;20045;-71
2022/02/24 14:25:33;;;;;;;4.03;1.40;;;;;;;;;;4996022;28;20074;-70
2022/02/24 14:28:03;;;;;;;4.05;1.75;;;;;;;;;;5012147;28;20042;-70
2022/02/24 14:30:30;;;;;;;3.63;1.25;;;;;;;;;;5003728;28;20394;-70
2022/02/24 14:32:58;;;;;;;5.07;2.00;;;;;;;;;;4994254;28;20046;-71
2022/02/24 14:35:25;;;;;;;4.57;1.35;;;;;;;;;;5007668;28;20491;-71
2022/02/24 14:37:53;;;;;;;3.25;1.13;;;;;;;;;;4991600;28;20049;-71
2022/02/24 14:40:21;;;;;;;3.78;1.50;;;;;;;;;;4993382;28;20080;-70
2022/02/24 14:42:48;;;;;;;4.00;1.25;;;;;;;;;;4993073;28;20112;-72
2022/02/24 14:45:16;;;;;;;3.10;1.30;;;;;;;;;;4993530;28;20409;-72
2022/02/24 14:47:44;;;;;;;2.53;1.10;;;;;;;;;;4993537;28;20510;-71
2022/02/24 14:50:11;;;;;;;2.47;1.02;;;;;;;;;;5008320;28;20477;-70
2022/02/24 14:52:38;;;;;;;3.88;1.25;;;;;;;;;;5023142;28;20062;-70
2022/02/24 14:55:09;;;;;;;2.60;1.27;;;;;;;;;;5019402;28;20537;-71
2022/02/24 14:57:37;;;;;;;2.75;1.00;;;;;;;;;;5021943;28;20116;-69